Time;durP1;ratioP1;P1;durP2;ratioP2;P2;SDS_P1;SDS_P2;PMS_P1;PMS_P2;Temp;Humidity;BMP_temperature;BMP_pressure;BME280_temperature;BME280_humidity;BME280_pressure;Samples;Min_cycle;Max_cycle;Signal;HPM_P1;HPM_P2
2023/01/11 00:00:24;;;;;;;35.40;18.10;;;;;;;3.53;93.42;100889.83;107759;1250;78889;-57
2023/01/11 00:03:24;;;;;;;37.60;19.80;;;;;;;3.49;93.35;100883.41;107805;1249;81631;-56
2023/01/11 00:06:06;;;;;;;38.90;18.30;;;;;;;3.50;93.56;100885.30;107759;1250;96844;-53
2023/01/11 00:08:44;;;;;;;41.60;19.90;;;;;;;3.55;93.78;100883.40;107720;1250;88698;-53
2023/01/11 00:11:24;;;;;;;38.80;18.60;;;;;;;3.61;93.68;100886.13;107795;1250;94874;-53
2023/01/11 00:14:04;;;;;;;37.40;18.00;;;;;;;3.64;93.61;100883.21;107764;1250;82220;-52
2023/01/11 00:16:42;;;;;;;37.90;19.10;;;;;;;3.67;93.74;100883.11;107767;1254;82469;-57
2023/01/11 00:19:19;;;;;;;36.70;17.90;;;;;;;3.71;93.86;100884.35;107760;1250;96655;-57
2023/01/11 00:22:01;;;;;;;39.50;20.00;;;;;;;3.69;93.70;100888.27;107734;1250;87334;-57
2023/01/11 00:24:35;;;;;;;40.30;19.40;;;;;;;3.68;93.69;100890.31;107697;1253;92778;-54
2023/01/11 00:27:10;;;;;;;;;;;;;;;3.68;93.71;100888.65;107711;1251;79882;-56
2023/01/11 00:29:46;;;;;;;38.10;18.10;;;;;;;3.68;93.66;100884.41;107723;1250;82658;-56
2023/01/11 00:32:26;;;;;;;38.10;18.70;;;;;;;3.61;93.56;100886.60;107687;1250;96182;-56
2023/01/11 00:35:03;;;;;;;45.00;20.70;;;;;;;3.61;93.61;100888.65;107762;1250;87559;-56
2023/01/11 00:37:44;;;;;;;35.70;18.90;;;;;;;3.61;93.78;100879.13;107779;1250;92648;-56
2023/01/11 00:40:25;;;;;;;39.90;19.50;;;;;;;3.62;93.86;100880.67;107746;1250;80029;-54
2023/01/11 00:49:00;;;;;;;38.60;18.50;;;;;;;3.59;93.86;100883.79;107691;1250;88520;-53
2023/01/11 00:51:35;;;;;;;37.70;18.90;;;;;;;3.59;93.93;100894.10;107775;1256;94778;-54
2023/01/11 00:54:19;;;;;;;38.30;18.20;;;;;;;3.63;94.00;100902.02;107777;1252;81376;-54
2023/01/11 00:56:54;;;;;;;36.90;18.10;;;;;;;3.60;94.12;100904.51;107796;1250;82124;-54
2023/01/11 00:59:27;;;;;;;;;;;;;;;3.60;94.14;100906.44;107802;1250;98790;-53
2023/01/11 01:02:03;;;;;;;31.60;15.90;;;;;;;3.63;93.96;100903.39;107747;1250;89062;-53
2023/01/11 01:04:40;;;;;;;33.20;17.80;;;;;;;3.67;94.25;100903.77;107816;1250;94386;-52
2023/01/11 01:07:20;;;;;;;36.10;17.50;;;;;;;3.74;94.20;100907.90;107707;1250;79184;-53
2023/01/11 01:10:00;;;;;;;35.60;17.70;;;;;;;3.76;94.21;100919.19;107729;1251;82353;-56
2023/01/11 01:15:33;;;;;;;37.30;18.20;;;;;;;3.84;94.36;100913.96;107735;1250;86223;-54
2023/01/11 01:18:19;;;;;;;33.20;17.00;;;;;;;3.88;94.60;100911.01;107699;1250;93779;-55
2023/01/11 01:21:00;;;;;;;37.30;17.90;;;;;;;3.92;94.71;100912.05;107766;1250;80890;-50
2023/01/11 01:23:37;;;;;;;36.40;18.80;;;;;;;3.92;94.69;100911.16;107699;1251;82104;-53
2023/01/11 01:26:12;;;;;;;37.30;18.30;;;;;;;3.89;94.52;100908.71;107720;1250;98139;-52
2023/01/11 01:28:50;;;;;;;36.50;18.80;;;;;;;3.89;94.35;100906.45;107729;1250;89180;-53
2023/01/11 01:31:29;;;;;;;41.20;18.70;;;;;;;3.89;94.48;100911.06;107736;1252;94772;-53
2023/01/11 01:34:11;;;;;;;39.60;19.50;;;;;;;3.94;94.54;100914.02;107744;1250;81115;-53
2023/01/11 01:36:57;;;;;;;38.40;18.80;;;;;;;3.94;94.46;100917.51;107760;1250;83085;-49
2023/01/11 01:39:39;;;;;;;40.70;18.30;;;;;;;3.97;94.59;100915.34;107685;1250;97885;-56
2023/01/11 01:42:22;;;;;;;40.60;19.40;;;;;;;4.03;94.45;100915.89;107799;1250;87950;-57
2023/01/11 01:45:18;;;;;;;37.90;19.50;;;;;;;4.07;94.59;100913.59;107747;1250;94765;-53
2023/01/11 01:47:59;;;;;;;40.50;19.50;;;;;;;4.09;94.65;100911.17;107786;1249;80062;-52
2023/01/11 01:50:46;;;;;;;38.70;19.30;;;;;;;4.14;94.41;100916.98;107789;1250;79701;-52
2023/01/11 01:53:29;;;;;;;36.70;18.70;;;;;;;4.12;94.46;100917.86;107725;1250;98970;-52
2023/01/11 01:56:08;;;;;;;43.30;20.60;;;;;;;4.12;94.41;100916.95;107752;1250;88283;-52
2023/01/11 01:58:55;;;;;;;41.20;20.10;;;;;;;4.10;94.39;100919.64;107721;1250;94818;-54
2023/01/11 02:04:40;;;;;;;35.70;19.00;;;;;;;4.07;94.48;100911.20;107632;1253;83326;-55
2023/01/11 02:07:23;;;;;;;33.50;18.20;;;;;;;4.04;94.51;100914.52;107679;1250;99020;-53
2023/01/11 02:10:08;;;;;;;39.80;19.10;;;;;;;4.02;94.31;100907.61;107677;1251;89351;-52
2023/01/11 02:12:51;;;;;;;39.30;19.60;;;;;;;4.04;94.53;100901.52;107692;1250;94577;-52
2023/01/11 02:15:32;;;;;;;39.20;19.70;;;;;;;4.04;94.54;100900.94;107697;1250;80178;-52
2023/01/11 02:18:13;;;;;;;39.00;20.00;;;;;;;4.08;94.75;100904.36;107673;1251;81770;-53
2023/01/11 02:21:11;;;;;;;43.80;20.30;;;;;;;4.11;94.68;100897.00;107732;1250;97666;-56
2023/01/11 02:24:14;;;;;;;39.10;19.80;;;;;;;4.11;94.54;100900.14;107769;1250;89186;-55
2023/01/11 02:27:24;;;;;;;39.40;19.50;;;;;;;4.10;94.58;100895.76;107819;1250;92566;-57
2023/01/11 02:30:18;;;;;;;41.30;19.70;;;;;;;4.13;94.50;100897.27;107781;1250;81547;-54
2023/01/11 02:33:13;;;;;;;39.20;19.00;;;;;;;4.15;94.66;100898.58;107825;1250;82210;-53
2023/01/11 02:35:59;;;;;;;;;;;;;;;4.21;94.70;100896.85;107775;1250;99678;-56
2023/01/11 02:38:46;;;;;;;40.40;19.80;;;;;;;4.24;94.64;100896.13;107768;1250;88748;-56
2023/01/11 02:47:37;;;;;;;41.60;20.40;;;;;;;4.31;94.46;100890.92;107719;1250;82034;-56
2023/01/11 02:50:23;;;;;;;39.20;20.90;;;;;;;4.33;94.39;100887.71;107711;1250;98501;-57
2023/01/11 02:53:06;;;;;;;38.50;19.50;;;;;;;4.30;94.47;100884.20;107726;1250;86537;-56
2023/01/11 02:55:52;;;;;;;40.80;21.00;;;;;;;4.28;94.46;100889.39;107698;1251;95260;-56
2023/01/11 02:58:35;;;;;;;46.20;21.60;;;;;;;4.30;94.34;100887.05;107762;1250;82071;-56
2023/01/11 03:01:18;;;;;;;36.90;20.50;;;;;;;4.31;94.24;100893.05;107726;1250;81712;-56
2023/01/11 03:03:56;;;;;;;39.50;20.90;;;;;;;4.30;94.33;100896.91;107713;1249;99408;-53
2023/01/11 03:06:38;;;;;;;41.60;21.20;;;;;;;4.31;94.24;100893.98;107717;1250;87531;-56
2023/01/11 03:09:30;;;;;;;36.60;20.80;;;;;;;4.31;94.19;100892.89;107759;1250;94173;-56
2023/01/11 03:12:53;;;;;;;36.90;21.10;;;;;;;4.30;94.21;100888.88;107822;1249;81171;-55
2023/01/11 03:16:26;;;;;;;39.10;22.50;;;;;;;4.27;94.41;100892.90;107840;1250;82169;-54
2023/01/11 03:19:21;;;;;;;40.00;22.00;;;;;;;4.29;94.25;100893.60;107682;1251;97420;-54
2023/01/11 03:22:07;;;;;;;38.60;21.30;;;;;;;4.27;94.55;100895.69;107794;1251;87877;-53
2023/01/11 03:24:50;;;;;;;43.30;23.40;;;;;;;4.22;94.67;100899.95;107736;1250;94397;-51
2023/01/11 03:27:36;;;;;;;40.20;22.00;;;;;;;4.24;94.57;100900.27;107728;1250;81977;-53
2023/01/11 03:30:22;;;;;;;34.60;20.20;;;;;;;4.23;94.53;100898.02;107689;1250;81765;-57
2023/01/11 03:33:06;;;;;;;42.50;23.10;;;;;;;4.22;94.62;100894.41;107742;1250;98425;-56
2023/01/11 03:35:50;;;;;;;39.00;22.10;;;;;;;4.24;94.48;100895.85;107750;1251;87552;-54
2023/01/11 03:38:40;;;;;;;39.10;21.90;;;;;;;4.24;94.69;100890.30;107699;1252;93581;-48
2023/01/11 03:41:20;;;;;;;37.20;22.50;;;;;;;4.23;94.61;100884.11;107662;1250;80993;-54
2023/01/11 03:44:00;;;;;;;35.50;22.70;;;;;;;4.22;94.51;100885.66;107689;1250;81187;-53
2023/01/11 03:46:47;;;;;;;34.20;20.90;;;;;;;4.26;94.40;100877.10;107670;1250;98959;-55
2023/01/11 03:49:35;;;;;;;38.60;21.50;;;;;;;4.22;94.60;100878.20;107703;1250;88398;-54
2023/01/11 03:52:15;;;;;;;38.10;20.70;;;;;;;4.27;94.52;100871.88;107698;1252;93949;-56
2023/01/11 03:54:54;;;;;;;34.10;20.10;;;;;;;4.29;94.41;100871.83;107743;1250;81852;-54
2023/01/11 03:57:33;;;;;;;36.40;20.10;;;;;;;4.26;94.63;100873.14;107800;1250;83261;-54
2023/01/11 04:00:13;;;;;;;42.80;22.20;;;;;;;4.28;94.58;100876.00;107770;1250;97920;-52
2023/01/11 04:02:59;;;;;;;42.20;22.00;;;;;;;4.32;94.48;100879.61;107756;1252;89095;-50
2023/01/11 04:05:44;;;;;;;40.30;22.30;;;;;;;4.36;94.23;100880.14;107715;1250;94918;-53
2023/01/11 04:08:24;;;;;;;38.30;21.10;;;;;;;4.34;94.33;100882.42;107716;1250;82587;-53
2023/01/11 04:11:06;;;;;;;36.60;20.40;;;;;;;4.29;94.51;100879.67;107742;1249;83613;-57
2023/01/11 04:13:49;;;;;;;40.70;21.00;;;;;;;4.27;94.60;100881.33;107705;1250;98755;-55
2023/01/11 04:16:30;;;;;;;38.10;21.10;;;;;;;4.28;94.56;100870.92;107709;1252;88000;-54
2023/01/11 04:19:12;;;;;;;46.10;22.40;;;;;;;4.32;94.45;100870.34;107681;1253;95085;-52
2023/01/11 04:21:50;;;;;;;41.60;21.90;;;;;;;4.29;94.42;100874.02;107685;1252;81678;-57
2023/01/11 04:24:36;;;;;;;41.30;22.90;;;;;;;4.31;94.50;100871.98;107722;1253;80688;-56
2023/01/11 04:27:20;;;;;;;42.90;22.00;;;;;;;4.33;94.46;100870.45;107723;1249;96718;-56
2023/01/11 04:30:00;;;;;;;39.00;21.60;;;;;;;4.35;94.48;100871.50;107754;1253;88957;-56
2023/01/11 04:32:43;;;;;;;39.60;21.30;;;;;;;4.33;94.65;100871.84;107724;1250;94957;-56
2023/01/11 04:35:22;;;;;;;42.20;22.60;;;;;;;4.36;94.71;100866.95;107705;1251;80840;-57
2023/01/11 04:38:01;;;;;;;38.40;21.10;;;;;;;4.35;94.53;100868.27;107727;1253;83280;-56
2023/01/11 04:40:48;;;;;;;39.10;20.70;;;;;;;4.33;94.64;100869.36;107795;1253;96728;-57
2023/01/11 04:43:23;;;;;;;37.60;19.90;;;;;;;4.37;94.50;100868.81;107769;1250;85943;-57
2023/01/11 04:46:03;;;;;;;37.30;20.10;;;;;;;4.33;94.52;100867.52;107788;1251;95656;-55
2023/01/11 04:48:41;;;;;;;32.00;18.20;;;;;;;4.29;94.45;100867.17;107804;1253;81435;-54
2023/01/11 04:51:18;;;;;;;37.40;20.00;;;;;;;4.24;94.53;100871.92;107746;1250;81390;-56
2023/01/11 04:53:57;;;;;;;43.70;21.80;;;;;;;4.24;94.72;100872.14;107695;1251;99104;-56
2023/01/11 04:56:39;;;;;;;40.70;20.40;;;;;;;4.27;94.60;100867.74;107759;1253;88596;-57
2023/01/11 04:59:24;;;;;;;35.40;19.80;;;;;;;4.24;94.49;100868.69;107759;1253;92803;-56
2023/01/11 05:02:09;;;;;;;41.00;21.10;;;;;;;4.21;94.60;100871.30;107693;1251;81000;-55
2023/01/11 05:04:54;;;;;;;38.00;20.40;;;;;;;4.21;94.68;100875.95;107649;1253;81411;-56
2023/01/11 05:07:38;;;;;;;32.00;17.80;;;;;;;4.18;94.72;100874.64;107670;1253;98475;-56
2023/01/11 05:10:13;;;;;;;40.00;19.50;;;;;;;4.04;94.79;100879.25;107723;1251;89341;-53
2023/01/11 05:12:54;;;;;;;36.20;19.30;;;;;;;4.09;94.64;100876.61;107677;1250;94394;-54
2023/01/11 05:15:38;;;;;;;39.80;18.80;;;;;;;4.10;94.60;100871.21;107745;1250;82029;-55
2023/01/11 05:18:15;;;;;;;35.00;18.60;;;;;;;4.10;94.69;100875.66;107720;1253;83154;-56
2023/01/11 05:20:52;;;;;;;38.90;19.80;;;;;;;4.13;94.66;100881.30;107788;1253;97516;-57
2023/01/11 05:23:34;;;;;;;35.20;18.40;;;;;;;4.14;94.60;100885.10;107696;1255;88469;-56
2023/01/11 05:26:22;;;;;;;37.40;18.00;;;;;;;4.14;94.60;100887.59;107782;1253;95718;-53
2023/01/11 05:29:01;;;;;;;;;;;;;;;4.17;94.55;100885.73;107772;1253;82704;-54
2023/01/11 05:31:36;;;;;;;32.90;17.10;;;;;;;4.12;94.79;100884.90;107756;1253;81498;-56
2023/01/11 05:34:12;;;;;;;30.00;15.40;;;;;;;4.14;94.80;100884.26;107901;1253;98083;-57
2023/01/11 05:36:54;;;;;;;30.60;15.90;;;;;;;4.13;94.94;100878.98;107836;1251;87637;-57
2023/01/11 05:39:36;;;;;;;32.50;14.60;;;;;;;4.15;94.84;100878.02;107821;1253;94129;-57
2023/01/11 05:42:16;;;;;;;28.20;14.80;;;;;;;4.12;94.74;100870.88;107701;1251;81356;-53
2023/01/11 05:47:54;;;;;;;28.70;14.20;;;;;;;4.12;94.58;100871.00;107622;1253;98205;-51
2023/01/11 05:50:39;;;;;;;29.00;14.70;;;;;;;4.08;94.60;100866.06;107678;1254;87879;-53
2023/01/11 05:53:16;;;;;;;27.60;13.90;;;;;;;4.08;94.58;100860.29;107668;1250;93902;-55
2023/01/11 05:56:01;;;;;;;31.80;15.70;;;;;;;4.08;94.65;100858.69;107747;1251;80050;-57
2023/01/11 05:58:44;;;;;;;29.40;14.80;;;;;;;4.06;94.66;100859.10;107791;1251;82958;-58
2023/01/11 06:01:27;;;;;;;27.60;14.20;;;;;;;4.06;94.82;100848.97;107695;1254;96199;-58
2023/01/11 06:04:09;;;;;;;26.90;13.20;;;;;;;4.06;94.90;100849.84;107783;1254;88584;-57
2023/01/11 06:06:51;;;;;;;28.10;14.30;;;;;;;4.04;95.05;100854.15;107762;1251;92941;-57
2023/01/11 06:09:33;;;;;;;29.20;13.60;;;;;;;4.06;95.01;100855.73;107713;1251;81812;-57
2023/01/11 06:12:08;;;;;;;31.50;14.60;;;;;;;4.08;94.99;100855.02;107721;1252;81782;-55
2023/01/11 06:14:47;;;;;;;31.10;14.50;;;;;;;4.06;94.80;100853.36;107720;1253;98783;-56
2023/01/11 06:17:28;;;;;;;29.30;13.60;;;;;;;4.08;94.97;100853.06;107467;1250;477623;-55
2023/01/11 06:20:06;;;;;;;29.60;14.30;;;;;;;4.07;94.73;100847.80;107751;1251;95530;-54
2023/01/11 06:22:47;;;;;;;29.20;13.60;;;;;;;4.12;94.67;100849.16;107780;1251;80330;-54
2023/01/11 06:25:29;;;;;;;30.70;14.60;;;;;;;4.07;94.58;100849.15;107836;1253;79833;-57
2023/01/11 06:28:07;;;;;;;27.50;14.40;;;;;;;4.03;94.69;100849.20;107682;1251;98646;-52
2023/01/11 06:30:51;;;;;;;31.20;15.50;;;;;;;3.99;94.73;100851.01;107737;1254;88696;-54
2023/01/11 06:33:33;;;;;;;33.70;15.80;;;;;;;4.04;94.58;100849.95;107686;1251;94325;-51
2023/01/11 06:36:19;;;;;;;34.80;15.80;;;;;;;4.07;94.67;100846.55;107742;1251;81343;-56
2023/01/11 06:39:03;;;;;;;34.30;16.30;;;;;;;4.06;94.78;100843.94;107753;1250;83193;-57
2023/01/11 06:41:46;;;;;;;32.60;16.50;;;;;;;4.07;94.86;100845.63;107757;1251;98020;-58
2023/01/11 06:44:27;;;;;;;32.90;16.90;;;;;;;4.07;94.80;100840.81;107796;1253;89150;-59
2023/01/11 06:47:13;;;;;;;35.60;16.40;;;;;;;4.10;94.69;100837.33;107801;1251;93281;-56
2023/01/11 06:49:50;;;;;;;36.60;15.80;;;;;;;4.07;94.70;100847.27;107737;1251;81636;-54
2023/01/11 06:52:28;;;;;;;34.80;16.20;;;;;;;4.05;94.69;100845.06;107777;1251;82582;-54
2023/01/11 06:55:09;;;;;;;39.40;17.90;;;;;;;4.08;94.84;100839.27;107711;1251;99251;-56
2023/01/11 06:57:46;;;;;;;36.90;18.30;;;;;;;4.09;94.49;100841.70;107797;1254;87912;-55
2023/01/11 07:00:24;;;;;;;36.70;16.60;;;;;;;4.08;94.83;100842.48;107714;1251;95667;-55
2023/01/11 07:03:10;;;;;;;36.50;17.80;;;;;;;4.02;94.54;100844.80;107767;1250;80001;-54
2023/01/11 07:05:52;;;;;;;37.70;17.90;;;;;;;4.01;94.93;100852.65;107848;1253;80285;-57
2023/01/11 07:08:30;;;;;;;41.00;18.80;;;;;;;4.04;94.82;100851.77;107770;1251;98827;-57
2023/01/11 07:11:13;;;;;;;37.10;17.80;;;;;;;4.06;94.88;100846.61;107769;1251;87691;-57
2023/01/11 07:13:52;;;;;;;34.40;15.90;;;;;;;4.11;94.61;100844.91;107738;1253;95477;-57
2023/01/11 07:16:35;;;;;;;37.00;17.40;;;;;;;4.10;94.53;100846.95;107694;1253;82941;-53
2023/01/11 07:19:13;;;;;;;31.00;16.40;;;;;;;4.07;94.70;100848.50;107689;1253;83021;-53
2023/01/11 07:21:56;;;;;;;34.40;17.80;;;;;;;4.04;94.73;100846.94;107667;1254;98452;-52
2023/01/11 07:24:39;;;;;;;36.50;17.40;;;;;;;4.09;94.86;100846.54;107733;1251;88596;-56
2023/01/11 07:27:21;;;;;;;30.40;15.40;;;;;;;4.13;94.88;100842.55;107716;1253;93284;-52
2023/01/11 07:30:06;;;;;;;31.70;14.70;;;;;;;4.14;94.79;100842.16;107718;1253;81708;-56
2023/01/11 07:32:43;;;;;;;30.80;15.40;;;;;;;4.10;94.61;100846.29;107799;1251;82163;-55
2023/01/11 07:35:19;;;;;;;25.70;13.80;;;;;;;4.08;94.59;100850.03;107766;1251;97495;-62
2023/01/11 07:38:01;;;;;;;28.70;13.80;;;;;;;4.06;94.52;100847.01;107888;1253;87932;-57
2023/01/11 07:40:36;;;;;;;24.50;12.80;;;;;;;3.99;94.55;100848.35;107798;1249;93956;-56
2023/01/11 07:43:20;;;;;;;23.10;12.90;;;;;;;3.98;94.52;100850.36;107751;1251;81805;-56
2023/01/11 07:46:00;;;;;;;22.00;11.60;;;;;;;3.91;94.34;100847.77;107722;1249;83147;-57
2023/01/11 07:48:40;;;;;;;24.80;12.50;;;;;;;3.90;94.31;100846.46;107725;1251;99316;-57
2023/01/11 07:51:23;;;;;;;22.10;11.50;;;;;;;3.88;94.52;100842.94;107714;1251;88476;-52
2023/01/11 07:54:02;;;;;;;27.60;12.50;;;;;;;3.79;94.51;100843.55;107697;1253;94226;-56
2023/01/11 07:56:43;;;;;;;24.50;12.50;;;;;;;3.79;94.67;100846.58;107735;1248;78510;-56
2023/01/11 07:59:25;;;;;;;23.90;12.60;;;;;;;3.86;94.45;100850.43;107714;1251;82764;-57
2023/01/11 08:02:06;;;;;;;26.30;13.00;;;;;;;3.89;94.42;100849.40;107749;1251;99459;-59
2023/01/11 08:04:45;;;;;;;27.50;13.60;;;;;;;3.94;94.62;100846.63;107759;1251;89118;-56
2023/01/11 08:07:26;;;;;;;25.50;12.70;;;;;;;4.00;94.43;100843.39;107692;1252;93300;-55
2023/01/11 08:10:07;;;;;;;29.20;14.10;;;;;;;4.10;94.23;100837.90;107696;1251;81888;-57
2023/01/11 08:15:50;;;;;;;29.30;13.90;;;;;;;4.37;94.47;100837.63;107751;1253;97835;-54
2023/01/11 08:18:25;;;;;;;26.60;14.20;;;;;;;4.44;94.06;100832.63;107796;1251;87575;-54
2023/01/11 08:21:05;;;;;;;25.90;14.50;;;;;;;4.47;93.93;100829.70;107736;1251;92878;-53
2023/01/11 08:23:49;;;;;;;26.90;14.80;;;;;;;4.48;93.78;100826.21;107782;1251;80989;-50
2023/01/11 08:26:31;;;;;;;25.80;13.30;;;;;;;4.48;93.78;100830.15;107844;1249;83317;-57
2023/01/11 08:29:10;;;;;;;29.00;14.50;;;;;;;4.39;93.52;100831.89;107845;1251;96641;-54
2023/01/11 08:31:58;;;;;;;27.40;15.00;;;;;;;4.42;93.59;100834.60;107718;1251;87665;-59
2023/01/11 08:34:39;;;;;;;29.80;13.70;;;;;;;4.46;93.62;100833.16;107719;1251;95056;-57
2023/01/11 08:37:18;;;;;;;28.60;14.20;;;;;;;4.46;93.56;100823.17;107721;1251;81500;-55
2023/01/11 08:40:01;;;;;;;27.00;13.90;;;;;;;4.46;93.36;100828.38;107771;1251;82924;-57
2023/01/11 08:42:47;;;;;;;28.00;14.80;;;;;;;4.35;93.40;100824.96;107688;1251;99111;-57
2023/01/11 08:45:22;;;;;;;27.40;14.70;;;;;;;4.34;93.36;100826.93;107716;1251;86953;-55
2023/01/11 08:48:05;;;;;;;25.90;13.80;;;;;;;4.39;93.57;100823.27;107713;1249;94469;-54
2023/01/11 08:50:43;;;;;;;23.60;14.00;;;;;;;4.54;93.49;100816.72;107725;1251;80906;-56
2023/01/11 08:53:24;;;;;;;27.10;15.20;;;;;;;4.68;93.55;100819.69;107736;1251;82145;-55
2023/01/11 08:56:08;;;;;;;25.40;13.90;;;;;;;4.77;93.35;100824.81;107790;1249;98037;-56
2023/01/11 08:58:48;;;;;;;28.10;15.30;;;;;;;4.81;93.11;100823.54;107734;1251;87195;-57
2023/01/11 09:01:29;;;;;;;27.80;15.10;;;;;;;4.83;93.12;100821.73;107727;1251;95237;-55
2023/01/11 09:04:09;;;;;;;26.30;15.40;;;;;;;4.94;92.90;100824.95;107735;1253;78134;-54
2023/01/11 09:06:44;;;;;;;26.60;14.50;;;;;;;4.91;92.39;100824.31;107787;1251;83185;-50
2023/01/11 09:09:20;;;;;;;26.80;14.50;;;;;;;4.83;92.14;100822.73;107777;1251;97584;-51
2023/01/11 09:12:01;;;;;;;24.80;14.60;;;;;;;4.77;92.12;100820.87;107816;1251;88154;-60
2023/01/11 09:14:38;;;;;;;26.10;14.50;;;;;;;4.75;92.16;100819.08;107799;1251;92869;-58
2023/01/11 09:17:19;;;;;;;27.80;15.10;;;;;;;4.70;92.24;100823.06;107792;1250;81744;-59
2023/01/11 09:20:02;;;;;;;23.90;13.50;;;;;;;4.63;92.15;100819.31;107803;1251;82256;-55
2023/01/11 09:22:45;;;;;;;26.50;13.70;;;;;;;4.65;92.27;100812.88;107729;1250;96841;-53
2023/01/11 09:25:30;;;;;;;;;;;;;;;4.81;92.44;100801.33;107747;1250;87435;-59
2023/01/11 09:28:07;;;;;;;24.20;14.20;;;;;;;5.07;92.50;100794.67;107729;1250;95770;-58
2023/01/11 09:30:45;;;;;;;25.80;14.50;;;;;;;5.19;92.71;100795.58;107723;1249;81504;-57
2023/01/11 09:33:30;;;;;;;22.90;13.70;;;;;;;5.33;92.27;100792.05;107788;1251;80421;-54
2023/01/11 09:36:09;;;;;;;22.40;13.50;;;;;;;5.23;91.77;100790.73;107733;1251;96051;-54
2023/01/11 09:38:46;;;;;;;26.50;15.30;;;;;;;5.11;91.70;100786.34;107739;1251;86537;-54
2023/01/11 09:41:49;;;;;;;29.90;15.20;;;;;;;5.06;91.79;100782.55;107706;1250;91903;-52
2023/01/11 09:44:32;;;;;;;23.80;13.90;;;;;;;5.20;91.79;100783.21;107688;1250;79736;-52
2023/01/11 09:47:26;;;;;;;25.10;13.50;;;;;;;5.08;91.14;100779.90;107705;1251;82146;-55
2023/01/11 09:50:13;;;;;;;21.40;13.00;;;;;;;4.97;90.89;100779.86;107753;1251;98529;-56
2023/01/11 09:52:57;;;;;;;24.10;14.50;;;;;;;4.87;90.62;100779.55;107774;1251;87942;-53
2023/01/11 09:55:38;;;;;;;22.60;13.50;;;;;;;4.86;90.89;100784.53;107707;1250;92121;-56
2023/01/11 09:58:45;;;;;;;21.20;13.40;;;;;;;4.81;90.93;100781.56;107740;1251;81073;-55
2023/01/11 10:01:30;;;;;;;24.60;13.90;;;;;;;4.65;91.09;100779.72;107732;1251;81456;-53
2023/01/11 10:04:40;;;;;;;21.00;12.60;;;;;;;4.65;90.98;100777.04;107746;1251;98474;-54
2023/01/11 10:07:56;;;;;;;21.80;13.50;;;;;;;4.59;91.11;100776.70;107654;1253;88210;-58
2023/01/11 10:10:47;;;;;;;26.10;14.40;;;;;;;4.61;90.81;100778.61;107733;1250;94574;-55
2023/01/11 10:13:44;;;;;;;22.00;12.60;;;;;;;4.59;91.16;100779.16;107726;1250;82408;-57
2023/01/11 10:16:37;;;;;;;23.00;14.00;;;;;;;4.73;91.37;100771.83;107759;1250;81190;-55
2023/01/11 10:19:23;;;;;;;25.10;15.20;;;;;;;4.83;91.33;100768.03;107657;1250;99462;-54
2023/01/11 10:22:11;;;;;;;24.70;13.40;;;;;;;4.83;91.27;100764.61;107665;1250;89138;-51
2023/01/11 10:24:50;;;;;;;25.50;15.20;;;;;;;4.83;91.04;100762.48;107701;1249;92446;-56
2023/01/11 10:27:36;;;;;;;26.00;15.60;;;;;;;4.84;90.84;100762.58;107772;1250;79498;-58
2023/01/11 10:33:37;;;;;;;22.10;14.30;;;;;;;4.88;91.08;100762.21;107753;1250;99082;-57
2023/01/11 10:36:33;;;;;;;21.40;13.60;;;;;;;4.92;91.05;100764.61;107766;1249;86848;-57
2023/01/11 10:39:34;;;;;;;22.60;14.10;;;;;;;4.88;90.64;100766.96;107825;1249;95753;-57
2023/01/11 10:42:20;;;;;;;25.60;14.60;;;;;;;4.78;90.52;100766.34;107733;1254;82420;-57
2023/01/11 10:45:06;;;;;;;19.80;13.30;;;;;;;4.84;90.53;100763.27;107806;1251;81527;-55
2023/01/11 10:47:56;;;;;;;21.60;13.00;;;;;;;4.89;90.45;100760.70;107697;1251;97389;-55
2023/01/11 10:50:43;;;;;;;24.20;14.60;;;;;;;4.78;90.22;100758.83;107694;1254;88131;-54
2023/01/11 10:53:27;;;;;;;22.70;14.30;;;;;;;4.71;90.21;100755.71;107714;1250;95222;-52
2023/01/11 10:56:19;;;;;;;23.80;14.10;;;;;;;4.67;90.18;100749.73;107699;1250;81729;-56
2023/01/11 10:59:22;;;;;;;23.00;13.30;;;;;;;4.63;90.56;100743.17;107699;1253;82855;-56
2023/01/11 11:02:10;;;;;;;21.10;12.70;;;;;;;4.64;90.52;100739.77;107705;1251;99348;-53
2023/01/11 11:05:03;;;;;;;23.00;14.40;;;;;;;4.62;90.59;100735.70;107736;1250;87408;-55
2023/01/11 11:07:50;;;;;;;20.80;12.50;;;;;;;4.76;90.44;100731.23;107737;1252;95457;-55
2023/01/11 11:10:38;;;;;;;22.10;13.00;;;;;;;4.86;90.63;100726.64;107744;1250;80806;-56
2023/01/11 11:13:31;;;;;;;22.40;13.90;;;;;;;4.91;90.39;100715.10;107733;1250;83404;-55
2023/01/11 11:16:15;;;;;;;25.00;14.60;;;;;;;4.88;90.29;100706.29;107762;1250;97843;-54
2023/01/11 11:18:51;;;;;;;21.90;13.40;;;;;;;4.89;90.24;100700.55;107703;1251;88376;-55
2023/01/11 11:21:31;;;;;;;22.90;14.30;;;;;;;4.81;90.07;100700.54;107706;1250;95120;-55
2023/01/11 11:24:24;;;;;;;21.70;13.80;;;;;;;4.79;89.99;100700.55;107728;1251;81009;-55
2023/01/11 11:27:11;;;;;;;23.50;13.90;;;;;;;4.80;90.25;100700.65;107710;1251;80762;-54
2023/01/11 11:29:57;;;;;;;23.80;14.60;;;;;;;4.74;90.32;100696.89;107669;1251;98501;-54
2023/01/11 11:32:41;;;;;;;22.40;13.00;;;;;;;4.81;90.03;100688.45;107752;1251;87650;-55
2023/01/11 11:38:28;;;;;;;19.70;11.80;;;;;;;4.90;90.32;100680.31;104016;1297;600456;-57
2023/01/11 11:41:11;;;;;;;20.70;13.20;;;;;;;4.85;89.77;100677.88;106837;1264;80203;-64
2023/01/11 11:43:51;;;;;;;21.00;14.60;;;;;;;4.91;89.83;100674.23;106833;1264;81986;-57
2023/01/11 11:46:30;;;;;;;22.30;13.80;;;;;;;4.97;89.70;100667.05;106794;1264;97798;-57
2023/01/11 11:49:20;;;;;;;21.10;13.90;;;;;;;5.01;89.84;100668.16;106776;1268;87626;-56
2023/01/11 11:52:00;;;;;;;22.30;13.10;;;;;;;4.95;89.73;100665.67;106458;1262;483809;-57
2023/01/11 11:54:44;;;;;;;19.50;13.00;;;;;;;4.93;89.44;100664.09;106856;1263;81166;-54
2023/01/11 11:57:27;;;;;;;20.30;13.30;;;;;;;4.89;89.37;100661.08;107034;1260;81589;-55
2023/01/11 12:00:22;;;;;;;19.30;12.20;;;;;;;4.92;89.38;100657.38;107044;1262;95377;-55
2023/01/11 12:03:05;;;;;;;20.90;13.20;;;;;;;5.03;89.56;100652.55;107065;1260;88294;-51
2023/01/11 12:05:59;;;;;;;17.20;12.00;;;;;;;5.10;89.46;100653.13;107068;1262;94553;-56
2023/01/11 12:08:45;;;;;;;18.70;12.50;;;;;;;5.12;89.10;100649.73;107209;1259;80307;-57
2023/01/11 12:11:33;;;;;;;18.80;12.70;;;;;;;4.99;88.90;100643.00;107137;1259;81041;-54
2023/01/11 12:14:23;;;;;;;17.40;12.10;;;;;;;4.85;88.77;100640.40;107058;1259;94847;-55
2023/01/11 12:17:26;;;;;;;21.10;11.60;;;;;;;4.68;88.71;100634.89;107132;1259;87752;-56
2023/01/11 12:20:37;;;;;;;17.90;12.10;;;;;;;4.64;88.96;100628.81;107126;1259;94312;-58
2023/01/11 12:23:24;;;;;;;20.90;14.00;;;;;;;4.75;88.96;100621.23;107129;1259;80515;-56
2023/01/11 12:26:37;;;;;;;21.80;14.10;;;;;;;4.86;88.98;100616.82;107121;1262;82758;-57
2023/01/11 12:29:55;;;;;;;25.80;15.40;;;;;;;4.94;89.06;100615.49;107089;1259;97906;-55
2023/01/11 12:33:01;;;;;;;15.40;11.30;;;;;;;4.91;88.48;100613.63;107585;1253;89105;-57
2023/01/11 12:35:54;;;;;;;19.90;11.50;;;;;;;4.71;88.45;100613.36;107413;1253;94325;-56
2023/01/11 12:38:54;;;;;;;18.80;12.70;;;;;;;4.61;88.21;100612.94;107538;1253;80745;-55
2023/01/11 12:42:03;;;;;;;18.40;11.70;;;;;;;4.48;88.32;100606.48;107555;1253;81634;-53
2023/01/11 12:44:59;;;;;;;18.90;12.70;;;;;;;4.42;88.54;100602.53;107513;1253;95492;-54
2023/01/11 12:48:10;;;;;;;19.30;12.20;;;;;;;4.43;88.70;100606.83;107521;1253;89067;-52
2023/01/11 12:51:06;;;;;;;18.60;12.20;;;;;;;4.47;88.72;100608.59;107527;1253;94240;-55
2023/01/11 12:54:09;;;;;;;17.00;11.60;;;;;;;4.44;88.50;100604.20;107508;1257;81627;-55
2023/01/11 12:57:06;;;;;;;17.20;11.90;;;;;;;4.42;88.57;100606.72;107574;1253;83222;-53